createdAt,value
2023-01-05T00:01:53.971Z,11.25
2023-01-05T00:04:22.622Z,11.25
2023-01-05T00:06:50.589Z,11.23
2023-01-05T00:09:19.393Z,11.22
2023-01-05T00:12:05.574Z,11.23
2023-01-05T00:14:52.934Z,11.22
2023-01-05T00:17:42.227Z,11.21
2023-01-05T00:20:35.503Z,11.20
2023-01-05T00:23:03.940Z,11.22
2023-01-05T00:25:34.284Z,11.25
2023-01-05T00:28:02.416Z,11.29
2023-01-05T00:30:39.572Z,11.32
2023-01-05T00:33:12.632Z,11.37
2023-01-05T00:35:41.110Z,11.42
2023-01-05T00:38:09.808Z,11.45
2023-01-05T00:40:39.581Z,11.43
2023-01-05T00:43:07.463Z,11.49
2023-01-05T00:45:35.435Z,11.51
2023-01-05T00:48:03.468Z,11.53
2023-01-05T00:50:31.405Z,11.53
2023-01-05T00:53:00.915Z,11.54
2023-01-05T00:55:28.808Z,11.55
2023-01-05T00:57:56.769Z,11.56
2023-01-05T01:00:24.822Z,11.60
2023-01-05T01:02:53.212Z,11.60
2023-01-05T01:05:21.383Z,11.64
2023-01-05T01:07:49.756Z,11.66
2023-01-05T01:10:17.828Z,11.71
2023-01-05T01:12:45.773Z,11.72
2023-01-05T01:15:13.641Z,11.75
2023-01-05T01:17:42.745Z,11.77
2023-01-05T01:20:10.829Z,11.77
2023-01-05T01:22:38.800Z,11.79
2023-01-05T01:25:08.530Z,11.80
2023-01-05T01:27:36.401Z,11.82
2023-01-05T01:30:05.310Z,11.83
2023-01-05T01:32:33.319Z,11.84
2023-01-05T01:35:02.439Z,11.84
2023-01-05T01:37:30.563Z,11.84
2023-01-05T01:39:59.213Z,11.85
2023-01-05T01:42:27.550Z,11.86
2023-01-05T01:44:59.989Z,11.86
2023-01-05T01:47:42.077Z,11.86
2023-01-05T01:50:19.308Z,11.87
2023-01-05T01:52:51.030Z,11.86
2023-01-05T01:55:20.577Z,11.85
2023-01-05T01:57:50.546Z,11.86
2023-01-05T02:00:19.520Z,11.86
2023-01-05T02:02:52.546Z,11.87
2023-01-05T02:05:29.151Z,11.88
2023-01-05T02:07:57.470Z,11.86
2023-01-05T02:11:00.561Z,11.86
2023-01-05T02:13:57.189Z,11.84
2023-01-05T02:16:31.264Z,11.84
2023-01-05T02:19:34.549Z,11.78
2023-01-05T02:22:20.758Z,11.76
2023-01-05T02:25:18.882Z,11.69
2023-01-05T02:28:07.372Z,11.60
2023-01-05T02:31:01.632Z,11.47
2023-01-05T02:33:55.510Z,11.39
2023-01-05T02:36:42.453Z,11.34
2023-01-05T02:39:24.621Z,11.28
2023-01-05T02:41:58.433Z,11.25
2023-01-05T02:44:31.650Z,11.22
2023-01-05T02:47:27.848Z,11.15
2023-01-05T02:50:36.763Z,11.10
2023-01-05T02:53:09.095Z,11.03
2023-01-05T02:55:51.789Z,10.97
2023-01-05T02:58:24.596Z,10.96
2023-01-05T03:01:10.174Z,10.93
2023-01-05T03:03:42.902Z,10.91
2023-01-05T03:06:25.888Z,10.88
2023-01-05T03:08:58.261Z,10.86
2023-01-05T03:11:55.840Z,10.84
2023-01-05T03:14:33.289Z,10.84
2023-01-05T03:17:04.775Z,10.82
2023-01-05T03:19:36.486Z,10.87
2023-01-05T03:22:29.486Z,10.87
2023-01-05T03:25:17.411Z,10.91
2023-01-05T03:28:06.309Z,10.89
2023-01-05T03:31:15.727Z,10.93
2023-01-05T03:34:14.079Z,10.97
2023-01-05T03:37:06.792Z,10.97
2023-01-05T03:39:37.990Z,11.01
2023-01-05T03:42:09.693Z,11.01
2023-01-05T03:44:44.136Z,11.03
2023-01-05T03:47:14.955Z,11.02
2023-01-05T03:49:44.387Z,11.04
2023-01-05T03:52:12.847Z,11.05
2023-01-05T03:54:42.238Z,11.03
2023-01-05T03:57:10.342Z,11.06
2023-01-05T03:59:39.328Z,11.06
2023-01-05T04:02:07.249Z,11.04
2023-01-05T04:04:35.224Z,11.06
2023-01-05T04:07:04.030Z,11.06
2023-01-05T04:09:33.910Z,11.10
2023-01-05T04:12:02.228Z,11.12
2023-01-05T04:14:34.185Z,11.16
2023-01-05T04:17:02.033Z,11.19
2023-01-05T04:19:29.937Z,11.19
2023-01-05T04:21:57.949Z,11.23
2023-01-05T04:24:25.955Z,11.24
2023-01-05T04:26:53.784Z,11.24
2023-01-05T04:29:24.159Z,11.25
2023-01-05T04:31:52.256Z,11.27
2023-01-05T04:34:21.065Z,11.26
2023-01-05T04:36:50.745Z,11.22
2023-01-05T04:39:20.172Z,10.77
2023-01-05T04:41:50.496Z,9.78
2023-01-05T04:44:19.725Z,9.07
2023-01-05T04:46:50.119Z,8.47
2023-01-05T04:49:18.191Z,8.14
2023-01-05T04:51:49.043Z,7.93
2023-01-05T04:54:17.745Z,7.81
2023-01-05T04:56:45.835Z,7.76
2023-01-05T04:59:14.384Z,7.76
2023-01-05T05:01:44.805Z,7.79
2023-01-05T05:04:13.954Z,7.82
2023-01-05T05:06:42.103Z,7.88
2023-01-05T05:09:10.150Z,7.95
2023-01-05T05:11:39.094Z,7.99
2023-01-05T05:14:08.535Z,8.03
2023-01-05T05:18:45.902Z,8.12
2023-01-05T05:21:18.108Z,8.13
2023-01-05T05:23:46.269Z,8.18
2023-01-05T05:26:15.052Z,8.21
2023-01-05T05:28:44.735Z,8.24
2023-01-05T05:31:12.715Z,8.28
2023-01-05T05:33:41.486Z,8.32
2023-01-05T05:36:09.603Z,8.36
2023-01-05T05:38:37.569Z,8.37
2023-01-05T05:41:05.652Z,8.37
2023-01-05T05:43:33.547Z,8.35
2023-01-05T05:46:01.545Z,8.34
2023-01-05T05:48:29.479Z,8.33
2023-01-05T05:50:57.561Z,8.33
2023-01-05T05:53:26.223Z,8.34
2023-01-05T05:55:54.173Z,8.32
2023-01-05T05:58:22.365Z,8.31
2023-01-05T06:00:50.310Z,8.32
2023-01-05T06:03:18.216Z,8.33
2023-01-05T06:05:46.176Z,8.36
2023-01-05T06:08:14.083Z,8.40
2023-01-05T06:10:42.049Z,8.44
2023-01-05T06:13:10.173Z,8.48
2023-01-05T06:15:38.033Z,8.52
2023-01-05T06:18:05.974Z,8.55
2023-01-05T06:20:33.959Z,8.59
2023-01-05T06:23:02.156Z,8.62
2023-01-05T06:25:30.083Z,8.67
2023-01-05T06:27:58.032Z,8.72
2023-01-05T06:30:27.268Z,8.76
2023-01-05T06:32:55.528Z,8.81
2023-01-05T06:35:23.678Z,8.85
2023-01-05T06:37:51.884Z,8.90
2023-01-05T06:40:19.932Z,8.95
2023-01-05T06:42:47.851Z,9.00
2023-01-05T06:45:16.502Z,9.03
2023-01-05T06:47:44.763Z,9.07
2023-01-05T06:50:12.987Z,9.11
2023-01-05T06:52:40.929Z,9.15
2023-01-05T06:55:12.718Z,9.19
2023-01-05T06:57:40.585Z,9.22
2023-01-05T07:00:11.440Z,9.25
2023-01-05T07:02:39.482Z,9.28
2023-01-05T07:05:08.274Z,9.32
2023-01-05T07:07:36.862Z,9.37
2023-01-05T07:10:05.800Z,9.42
2023-01-05T07:12:33.789Z,9.47
2023-01-05T07:15:01.749Z,9.51
2023-01-05T07:17:29.763Z,9.55
2023-01-05T07:19:57.689Z,9.55
2023-01-05T07:22:25.776Z,9.56
2023-01-05T07:24:53.706Z,9.56
2023-01-05T07:27:21.561Z,9.58
2023-01-05T07:29:49.681Z,9.60
2023-01-05T07:32:17.734Z,9.65
2023-01-05T07:34:54.834Z,9.70
2023-01-05T07:37:25.257Z,9.74
2023-01-05T07:39:53.607Z,9.78
2023-01-05T07:42:21.681Z,9.84
2023-01-05T07:44:50.458Z,9.89
2023-01-05T07:47:19.185Z,9.93
2023-01-05T07:49:47.081Z,9.97
2023-01-05T07:52:14.998Z,10.00
2023-01-05T07:54:42.890Z,10.03
2023-01-05T07:57:10.829Z,10.06
2023-01-05T07:59:38.978Z,10.10
2023-01-05T08:02:07.091Z,10.14
2023-01-05T08:04:35.311Z,10.18
2023-01-05T08:07:07.740Z,10.20
2023-01-05T08:09:54.011Z,10.22
2023-01-05T08:12:21.990Z,10.29
2023-01-05T08:14:49.929Z,10.41
2023-01-05T08:17:17.912Z,10.46
2023-01-05T08:19:45.861Z,10.50
2023-01-05T08:22:13.760Z,10.52
2023-01-05T08:24:41.637Z,10.56
2023-01-05T08:27:09.589Z,10.61
2023-01-05T08:29:37.577Z,10.65
2023-01-05T08:32:05.794Z,10.68
2023-01-05T08:34:34.988Z,10.72
2023-01-05T08:37:03.091Z,10.74
2023-01-05T08:39:31.085Z,10.77
2023-01-05T08:42:02.798Z,10.76
2023-01-05T08:44:31.211Z,10.76
2023-01-05T08:46:59.088Z,10.77
2023-01-05T08:49:26.990Z,10.78
2023-01-05T08:51:54.887Z,10.80
2023-01-05T08:54:22.744Z,10.82
2023-01-05T08:56:50.897Z,10.83
2023-01-05T08:59:19.058Z,10.83
2023-01-05T09:01:47.045Z,10.84
2023-01-05T09:04:15.008Z,10.85
2023-01-05T09:06:43.096Z,10.87
2023-01-05T09:09:11.395Z,10.89
2023-01-05T09:11:39.838Z,10.91
2023-01-05T09:14:07.846Z,10.95
2023-01-05T09:17:06.319Z,10.97
2023-01-05T09:19:24.362Z,11.03
2023-01-05T09:21:52.685Z,11.10
2023-01-05T09:24:20.578Z,11.15
2023-01-05T09:26:48.832Z,11.21
2023-01-05T09:29:17.615Z,11.27
2023-01-05T09:31:45.695Z,11.38
2023-01-05T09:34:13.631Z,11.41
2023-01-05T09:36:41.563Z,11.42
2023-01-05T09:39:10.015Z,11.43
2023-01-05T09:41:48.519Z,11.41
2023-01-05T09:44:32.853Z,11.48
2023-01-05T09:47:05.207Z,11.53
2023-01-05T09:49:35.154Z,11.54
2023-01-05T09:52:10.731Z,11.46
2023-01-05T09:54:39.605Z,11.39
2023-01-05T09:57:16.545Z,11.47
2023-01-05T09:59:51.642Z,11.57
2023-01-05T10:02:51.920Z,11.63
2023-01-05T10:05:21.627Z,11.63
2023-01-05T10:08:02.999Z,11.61
2023-01-05T10:11:15.320Z,11.57
2023-01-05T10:14:03.434Z,11.52
2023-01-05T10:16:32.128Z,11.56
2023-01-05T10:19:01.722Z,11.56
2023-01-05T10:21:54.739Z,11.55
2023-01-05T10:24:45.393Z,11.54
2023-01-05T10:27:34.080Z,11.61
2023-01-05T10:30:20.320Z,11.65
2023-01-05T10:32:59.744Z,11.63
2023-01-05T10:36:07.447Z,11.64
2023-01-05T10:38:55.674Z,11.64
2023-01-05T10:41:54.652Z,11.66
2023-01-05T10:44:40.580Z,11.69
2023-01-05T10:47:10.449Z,11.75
2023-01-05T10:49:41.631Z,11.76
2023-01-05T10:52:14.538Z,11.75
2023-01-05T10:54:50.285Z,11.72
2023-01-05T10:57:35.793Z,11.73
2023-01-05T11:00:07.308Z,11.73
2023-01-05T11:02:40.181Z,11.69
2023-01-05T11:05:11.378Z,11.63
2023-01-05T11:07:59.852Z,11.56
2023-01-05T11:10:48.098Z,11.54
2023-01-05T11:13:15.938Z,11.52
2023-01-05T11:15:56.424Z,11.47
2023-01-05T11:18:35.987Z,11.47
2023-01-05T11:21:17.842Z,11.52
2023-01-05T11:23:51.591Z,11.61
2023-01-05T11:26:19.476Z,11.62
2023-01-05T11:29:24.356Z,11.68
2023-01-05T11:32:03.964Z,11.68
2023-01-05T11:34:44.426Z,11.70
2023-01-05T11:37:12.406Z,11.78
2023-01-05T11:39:46.378Z,11.83
2023-01-05T11:42:25.033Z,11.84
2023-01-05T11:45:02.048Z,11.85
2023-01-05T11:47:29.953Z,11.86
2023-01-05T11:50:08.464Z,11.85
2023-01-05T11:52:41.726Z,11.78
2023-01-05T11:55:36.473Z,11.69
2023-01-05T11:58:13.800Z,11.63
2023-01-05T12:01:26.674Z,11.62
2023-01-05T12:04:13.578Z,11.67
2023-01-05T12:07:14.088Z,11.71
2023-01-05T12:10:14.575Z,11.69
2023-01-05T12:13:01.670Z,11.62
2023-01-05T12:15:29.616Z,11.60
2023-01-05T12:18:14.118Z,11.61
2023-01-05T12:21:21.036Z,11.62
2023-01-05T12:24:07.458Z,11.63
2023-01-05T12:26:57.218Z,11.54
2023-01-05T12:31:02.761Z,11.46
2023-01-05T12:36:01.621Z,11.32
2023-01-05T12:38:46.645Z,11.31
2023-01-05T12:41:33.410Z,11.25
2023-01-05T12:44:07.327Z,11.12
2023-01-05T12:46:47.363Z,10.99
2023-01-05T12:49:26.005Z,10.88
2023-01-05T12:52:06.809Z,10.76
2023-01-05T12:54:41.300Z,10.61
2023-01-05T12:57:17.291Z,10.47
2023-01-05T12:59:56.370Z,10.41
2023-01-05T13:02:34.000Z,10.39
2023-01-05T13:05:28.131Z,10.39
2023-01-05T13:08:16.019Z,10.37
2023-01-05T13:11:00.261Z,10.33
2023-01-05T13:13:37.409Z,10.24
2023-01-05T13:16:05.443Z,10.14
2023-01-05T13:18:38.101Z,10.10
2023-01-05T13:21:12.716Z,10.07
2023-01-05T13:23:51.788Z,10.07
2023-01-05T13:26:25.177Z,10.09
2023-01-05T13:28:58.166Z,10.12
2023-01-05T13:32:04.017Z,10.15
2023-01-05T13:34:58.150Z,10.20
2023-01-05T13:40:41.636Z,10.16
2023-01-05T13:43:40.123Z,10.10
2023-01-05T13:46:27.176Z,10.07
2023-01-05T13:49:07.657Z,10.03
2023-01-05T13:51:58.876Z,9.98
2023-01-05T13:55:02.025Z,9.93
2023-01-05T13:57:37.675Z,9.90
2023-01-05T14:00:27.978Z,9.85
2023-01-05T14:03:00.991Z,9.81
2023-01-05T14:05:33.120Z,9.77
2023-01-05T14:08:06.443Z,9.74
2023-01-05T14:10:34.885Z,9.71
2023-01-05T14:13:04.048Z,9.70
2023-01-05T14:15:42.044Z,9.67
2023-01-05T14:18:11.944Z,9.63
2023-01-05T14:20:53.762Z,9.59
2023-01-05T14:23:24.478Z,9.56
2023-01-05T14:26:00.560Z,9.53
2023-01-05T14:28:28.453Z,9.50
2023-01-05T14:31:11.185Z,9.47
2023-01-05T14:34:10.224Z,9.45
2023-01-05T14:37:00.488Z,9.43
2023-01-05T14:39:42.218Z,9.41
2023-01-05T14:42:13.347Z,9.40
2023-01-05T14:44:49.922Z,9.38
2023-01-05T14:47:36.659Z,9.34
2023-01-05T14:50:06.663Z,9.30
2023-01-05T14:52:59.440Z,9.26
2023-01-05T14:55:50.630Z,9.18
2023-01-05T14:58:37.220Z,9.13
2023-01-05T15:01:21.109Z,9.07
2023-01-05T15:03:53.845Z,9.01
2023-01-05T15:06:49.898Z,8.97
2023-01-05T15:09:49.021Z,8.93
2023-01-05T15:12:55.337Z,8.87
2023-01-05T15:15:51.060Z,8.83
2023-01-05T15:18:40.529Z,8.80
2023-01-05T15:21:29.311Z,8.80
2023-01-05T15:24:48.226Z,8.79
2023-01-05T15:27:42.024Z,8.78
2023-01-05T15:30:30.444Z,8.77
2023-01-05T15:33:13.737Z,8.77
2023-01-05T15:35:53.938Z,8.78
2023-01-05T15:38:25.269Z,8.79
2023-01-05T15:41:01.594Z,8.81
2023-01-05T15:43:29.554Z,8.83
2023-01-05T15:45:58.789Z,8.84
2023-01-05T15:48:38.523Z,8.86
2023-01-05T15:51:07.728Z,8.89
2023-01-05T15:53:40.859Z,8.90
2023-01-05T15:56:28.146Z,8.92
2023-01-05T15:58:56.573Z,8.93
2023-01-05T16:01:24.710Z,8.95
2023-01-05T16:04:05.440Z,8.97
2023-01-05T16:06:39.369Z,8.98
2023-01-05T16:09:30.116Z,8.98
2023-01-05T16:12:11.663Z,8.97
2023-01-05T16:14:46.818Z,8.95
2023-01-05T16:17:19.675Z,8.93
2023-01-05T16:19:55.704Z,8.91
2023-01-05T16:22:55.105Z,8.89
2023-01-05T16:25:29.632Z,8.88
2023-01-05T16:28:03.736Z,8.87
2023-01-05T16:30:35.302Z,8.86
2023-01-05T16:33:12.569Z,8.85
2023-01-05T16:35:47.821Z,8.85
2023-01-05T16:38:23.399Z,8.85
2023-01-05T16:40:51.210Z,8.86
2023-01-05T16:43:33.750Z,8.85
2023-01-05T16:46:19.961Z,8.85
2023-01-05T16:48:54.491Z,8.84
2023-01-05T16:51:25.079Z,8.85
2023-01-05T16:53:57.100Z,8.84
2023-01-05T16:56:34.350Z,8.83
2023-01-05T16:59:23.179Z,8.82
2023-01-05T17:01:51.551Z,8.80
2023-01-05T17:04:20.004Z,8.78
2023-01-05T17:06:50.443Z,8.76
2023-01-05T17:09:25.780Z,8.73
2023-01-05T17:11:54.087Z,8.73
2023-01-05T17:14:22.650Z,8.72
2023-01-05T17:16:50.743Z,8.71
2023-01-05T17:19:21.432Z,8.68
2023-01-05T17:21:56.828Z,8.64
2023-01-05T17:24:27.420Z,8.60
2023-01-05T17:26:55.369Z,8.57
2023-01-05T17:29:25.731Z,8.55
2023-01-05T17:31:54.190Z,8.53
2023-01-05T17:34:23.008Z,8.52
2023-01-05T17:36:55.978Z,8.51
2023-01-05T17:39:24.312Z,8.50
2023-01-05T17:41:52.690Z,8.51
2023-01-05T17:44:20.634Z,8.51
2023-01-05T17:46:49.254Z,8.51
2023-01-05T17:49:20.471Z,8.51
2023-01-05T17:51:48.507Z,8.50
2023-01-05T17:54:16.503Z,8.50
2023-01-05T17:56:44.412Z,8.49
2023-01-05T17:59:12.461Z,8.46
2023-01-05T18:01:40.563Z,8.45
2023-01-05T18:04:08.569Z,8.44
2023-01-05T18:06:36.530Z,8.45
2023-01-05T18:09:04.534Z,8.44
2023-01-05T18:11:32.594Z,8.44
2023-01-05T18:14:00.492Z,8.43
2023-01-05T18:16:31.568Z,8.41
2023-01-05T18:18:59.586Z,8.40
2023-01-05T18:21:27.485Z,8.39
2023-01-05T18:23:55.499Z,8.38
2023-01-05T18:26:23.419Z,8.37
2023-01-05T18:28:53.089Z,8.35
2023-01-05T18:31:21.165Z,8.33
2023-01-05T18:33:49.235Z,8.30
2023-01-05T18:36:18.221Z,8.28
2023-01-05T18:38:46.175Z,8.25
2023-01-05T18:41:14.261Z,8.22
2023-01-05T18:43:42.342Z,8.18
2023-01-05T18:46:10.269Z,8.14
2023-01-05T18:48:38.239Z,8.12
2023-01-05T18:51:08.129Z,8.10
2023-01-05T18:53:39.451Z,8.08
2023-01-05T18:56:09.399Z,8.06
2023-01-05T18:58:37.571Z,8.06
2023-01-05T19:01:11.383Z,8.04
2023-01-05T19:03:39.900Z,8.01
2023-01-05T19:06:15.855Z,8.01
2023-01-05T19:08:44.696Z,8.02
2023-01-05T19:11:14.098Z,8.05
2023-01-05T19:13:45.250Z,8.08
2023-01-05T19:16:15.139Z,8.09
2023-01-05T19:18:47.984Z,8.09
2023-01-05T19:21:16.234Z,8.10
2023-01-05T19:23:44.093Z,8.09
2023-01-05T19:26:12.312Z,8.08
2023-01-05T19:28:40.709Z,8.06
2023-01-05T19:31:13.828Z,8.05
2023-01-05T19:33:42.662Z,8.02
2023-01-05T19:36:16.980Z,7.99
2023-01-05T19:38:45.905Z,7.95
2023-01-05T19:41:19.416Z,7.94
2023-01-05T19:43:49.276Z,7.91
2023-01-05T19:46:18.992Z,7.87
2023-01-05T19:48:47.875Z,7.83
2023-01-05T19:51:23.450Z,7.81
2023-01-05T19:53:55.617Z,7.79
2023-01-05T19:56:27.823Z,7.76
2023-01-05T19:58:59.896Z,7.74
2023-01-05T20:01:29.915Z,7.73
2023-01-05T20:03:57.919Z,7.71
2023-01-05T20:06:28.684Z,7.70
2023-01-05T20:08:59.979Z,7.67
2023-01-05T20:11:39.436Z,7.64
2023-01-05T20:14:30.990Z,7.62
2023-01-05T20:17:01.976Z,7.58
2023-01-05T20:19:31.389Z,7.56
2023-01-05T20:22:00.991Z,7.55
2023-01-05T20:24:31.357Z,7.53
2023-01-05T20:27:03.726Z,7.52
2023-01-05T20:29:32.068Z,7.51
2023-01-05T20:32:04.559Z,7.50
2023-01-05T20:34:36.299Z,7.49
2023-01-05T20:37:07.808Z,7.48
2023-01-05T20:39:37.756Z,7.48
2023-01-05T20:42:06.005Z,7.48
2023-01-05T20:44:37.242Z,7.46
2023-01-05T20:47:06.938Z,7.45
2023-01-05T20:49:36.989Z,7.44
2023-01-05T20:52:06.295Z,7.42
2023-01-05T20:54:34.482Z,7.41
2023-01-05T20:57:02.462Z,7.39
2023-01-05T20:59:32.483Z,7.38
2023-01-05T21:02:01.774Z,7.37
2023-01-05T21:04:31.068Z,7.34
2023-01-05T21:07:01.310Z,7.32
2023-01-05T21:09:30.405Z,7.31
2023-01-05T21:12:00.491Z,7.29
2023-01-05T21:14:28.436Z,7.28
2023-01-05T21:16:56.475Z,7.27
2023-01-05T21:19:25.390Z,7.25
2023-01-05T21:21:56.398Z,7.23
2023-01-05T21:24:27.561Z,7.20
2023-01-05T21:26:55.820Z,7.17
2023-01-05T21:29:26.240Z,7.15
2023-01-05T21:31:57.349Z,7.14
2023-01-05T21:34:25.442Z,7.11
2023-01-05T21:36:53.477Z,7.07
2023-01-05T21:39:24.635Z,7.05
2023-01-05T21:42:12.187Z,7.05
2023-01-05T21:44:40.838Z,7.03
2023-01-05T21:47:09.182Z,7.03
2023-01-05T21:49:37.122Z,7.03
2023-01-05T21:52:24.975Z,7.03
2023-01-05T21:55:11.652Z,7.03
2023-01-05T21:57:39.678Z,7.03
2023-01-05T22:00:08.530Z,7.01
2023-01-05T22:02:36.437Z,7.01
2023-01-05T22:05:04.944Z,7.00
2023-01-05T22:07:32.862Z,7.01
2023-01-05T22:10:00.850Z,7.02
2023-01-05T22:12:28.724Z,6.94
2023-01-05T22:14:56.870Z,6.85
2023-01-05T22:17:24.809Z,6.82
2023-01-05T22:19:55.508Z,6.79
2023-01-05T22:22:23.540Z,6.76
2023-01-05T22:24:51.511Z,6.73
2023-01-05T22:27:19.453Z,6.67
2023-01-05T22:29:47.332Z,6.59
2023-01-05T22:32:15.270Z,6.50
2023-01-05T22:34:44.444Z,6.46
2023-01-05T22:37:12.394Z,6.44
2023-01-05T22:39:40.368Z,6.42
2023-01-05T22:42:08.345Z,6.40
2023-01-05T22:44:36.242Z,6.35
2023-01-05T22:47:04.245Z,6.30
2023-01-05T22:49:32.277Z,6.25
2023-01-05T22:52:00.195Z,6.20
2023-01-05T22:54:28.395Z,6.13
2023-01-05T22:56:56.283Z,6.06
2023-01-05T22:59:24.135Z,6.01
2023-01-05T23:01:52.113Z,5.95
2023-01-05T23:04:20.060Z,5.90
2023-01-05T23:06:47.912Z,5.85
2023-01-05T23:09:16.853Z,5.78
2023-01-05T23:11:46.858Z,5.74
2023-01-05T23:14:17.412Z,5.71
2023-01-05T23:16:47.790Z,5.70
2023-01-05T23:19:16.903Z,5.68
2023-01-05T23:21:45.848Z,5.65
2023-01-05T23:24:14.096Z,5.64
2023-01-05T23:26:42.316Z,5.65
2023-01-05T23:29:10.263Z,5.66
2023-01-05T23:31:38.277Z,5.64
2023-01-05T23:34:06.151Z,5.66
2023-01-05T23:36:34.193Z,5.65
2023-01-05T23:39:02.141Z,5.65
2023-01-05T23:41:30.077Z,5.67
2023-01-05T23:43:57.983Z,5.65
2023-01-05T23:46:26.058Z,5.66
2023-01-05T23:48:54.003Z,5.68
2023-01-05T23:51:21.855Z,5.67
2023-01-05T23:53:51.632Z,5.65
2023-01-05T23:56:26.048Z,5.65
2023-01-05T23:58:57.185Z,5.65
